CST,Max TemperatureF,Mean TemperatureF,Min TemperatureF,Max Dew PointF,MeanDew PointF,Min DewpointF,Max Humidity, Mean Humidity, Min Humidity, Max Sea Level PressureIn, Mean Sea Level PressureIn, Min Sea Level PressureIn, Max VisibilityMiles, Mean VisibilityMiles, Min VisibilityMiles, Max Wind SpeedMPH, Mean Wind SpeedMPH, Max Gust SpeedMPH,PrecipitationIn, CloudCover, Events, WindDirDegrees
2014-2-1,10,0,-11,3,-3,-15,92,81,72,30.05,29.88,29.82,10,6,0,9,3,,0.01,6,Snow,286
2014-2-2,8,-8,-25,1,-10,-29,85,76,61,30.10,30.06,30.01,10,10,7,13,4,17,0.00,3,Snow,228
2014-2-3,12,-3,-18,3,-4,-22,92,80,62,30.22,30.10,30.03,10,10,4,7,3,,0.00,5,Snow,256
2014-2-4,5,-6,-18,-2,-13,-26,85,74,61,30.42,30.34,30.23,10,10,3,9,2,,0.00,5,Snow,316
2014-2-5,1,-6,-14,-8,-12,-18,84,74,61,30.42,30.36,30.28,10,10,5,9,4,16,0.00,4,,294
2014-2-6,3,-8,-18,-8,-13,-24,85,75,60,30.27,30.06,29.87,10,10,7,16,7,21,0.00,1,,246
2014-2-7,10,-3,-18,-8,-11,-24,85,69,41,30.01,29.88,29.81,10,10,10,15,8,22,0.00,0,Snow,248
2014-2-8,10,-8,-27,-4,-16,-35,83,66,48,30.09,30.03,29.99,10,10,10,7,1,,0.00,1,,304
2014-2-9,1,-8,-16,-11,-16,-22,84,69,47,30.22,30.13,30.08,10,10,10,13,6,20,0.00,0,,299
2014-2-10,3,-10,-22,-9,-18,-27,84,71,51,30.32,30.28,30.21,10,10,10,9,4,16,0.00,2,,274
2014-2-11,15,-8,-31,7,-14,-36,85,65,35,30.30,30.07,29.84,10,9,2,18,5,26,0.00,3,Snow,195
2014-2-12,10,4,-2,7,-3,-8,85,67,44,30.00,29.91,29.75,10,8,3,13,7,22,0.00,2,Snow,256
2014-2-13,17,8,-4,12,5,-8,92,82,62,29.74,29.54,29.42,10,6,0,18,9,24,0.00,6,Snow,51
2014-2-14,12,-1,-14,1,-10,-18,92,77,56,29.91,29.83,29.67,10,10,10,9,2,,0.00,0,,324
2014-2-15,15,2,-11,10,2,-17,92,81,62,30.03,29.86,29.75,10,8,1,13,4,17,0.00,7,Snow,129
2014-2-16,12,-6,-23,3,-7,-29,92,77,62,30.18,30.10,30.00,10,10,2,13,4,10,0.00,0,,131
2014-2-17,21,14,10,19,13,3,100,87,73,29.99,29.72,29.59,10,5,0,17,10,23,0.06,7,Snow,164
2014-2-18,39,29,19,27,22,18,100,80,56,29.58,29.50,29.45,10,10,5,10,6,,0.01,1,,224
2014-2-19,37,26,15,21,18,12,100,71,41,29.70,29.64,29.56,10,10,10,13,7,20,0.00,1,,240
2014-2-20,32,28,24,27,23,19,100,80,64,29.69,29.52,29.18,10,7,0,21,9,23,0.18,6,Snow,100
2014-2-21,26,14,1,25,10,-4,100,84,73,29.45,29.18,29.04,10,3,0,23,11,32,0.12,7,Snow,297
2014-2-22,12,6,0,1,-2,-6,85,75,62,29.83,29.65,29.45,10,9,5,23,13,29,0.00,4,,270
2014-2-23,8,4,0,1,-3,-6,85,73,61,30.01,29.92,29.83,10,7,2,20,12,31,0.00,6,Snow,285
2014-2-24,10,2,-5,-2,-6,-11,85,69,52,30.12,30.09,30.01,10,9,4,13,9,23,0.00,2,Snow,286
2014-2-25,1,-8,-18,-9,-16,-22,84,67,47,30.11,30.07,30.04,10,9,2,17,8,26,0.00,1,Snow,280
2014-2-26,6,-4,-14,-2,-14,-20,85,69,48,30.04,29.63,29.38,10,7,0,22,11,29,0.00,4,Snow,273
2014-2-27,-5,-15,-25,-20,-30,-35,76,55,34,30.03,29.96,29.78,10,10,1,14,7,22,0.00,0,,308
2014-2-28,5,-10,-25,-4,-16,-33,92,65,40,30.03,29.87,29.75,10,9,2,13,4,17,0.00,3,Snow,224